This is the latest recevied weather packets stored in our database for station/object HS5SQI-2. If no packets are shown the sender has not sent any weather packets the latest 10 day(s).
| Time | Temp. | Humidity | Pressure | Rain* | Wind** | Luminosity | Snow |
|---|---|---|---|---|---|---|---|
| 1777825218 | 33.33° C | 69% | 1006 hPa | - | - | 0 W/m² | - |
| 1777821486 | 33.89° C | 65% | 1006 hPa | - | - | 0 W/m² | - |
| 1777820864 | 33.89° C | 65% | 1006 hPa | - | - | 0 W/m² | - |
| 1777820242 | 34.44° C | 64% | 1006 hPa | - | - | 0 W/m² | - |
| 1777818998 | 34.44° C | 63% | 1006 hPa | - | - | 0 W/m² | - |
| 1777818376 | 34.44° C | 62% | 1006 hPa | - | - | 0 W/m² | - |
| 1777817132 | 33.89° C | 63% | 1006 hPa | - | - | 0 W/m² | - |
| 1777815266 | 34.44° C | 63% | 1006 hPa | - | - | 0 W/m² | - |
| 1777813400 | 35° C | 62% | 1005 hPa | - | - | 0 W/m² | - |
| 1777812778 | 35° C | 61% | 1005 hPa | - | - | 0 W/m² | - |
| 1777811533 | 35° C | 60% | 1005 hPa | - | - | 0 W/m² | - |
| 1777810912 | 35.56° C | 60% | 1005 hPa | - | - | 0 W/m² | - |
| 1777810290 | 35.56° C | 57% | 1005 hPa | - | - | 0 W/m² | - |
| 1777809046 | 36.11° C | 55% | 1005 hPa | - | - | 0 W/m² | - |
| 1777804691 | 37.22° C | 51% | 1003 hPa | - | - | 0 W/m² | - |
| 1777803447 | 37.78° C | 50% | 1003 hPa | - | - | 0 W/m² | - |
| 1777802825 | 37.78° C | 50% | 1003 hPa | - | - | 0 W/m² | - |
| 1777802203 | 37.22° C | 52% | 1003 hPa | - | - | 0 W/m² | - |
| 1777800959 | 37.78° C | 49% | 1003 hPa | - | - | 0 W/m² | - |
| 1777800337 | 37.78° C | 50% | 1003 hPa | - | - | 0 W/m² | - |
| 1777799715 | 37.78° C | 51% | 1003 hPa | - | - | 0 W/m² | - |
| 1777798471 | 38.33° C | 54% | 1003 hPa | - | - | 0 W/m² | - |
| 1777797226 | 37.22° C | 56% | 1003 hPa | - | - | 0 W/m² | - |
| 1777796604 | 37.78° C | 55% | 1003 hPa | - | - | 0 W/m² | - |
| 1777795982 | 37.22° C | 56% | 1003 hPa | - | - | 0 W/m² | - |
* Rain since midnight (hover to see other rain measurements)
** Current wind speed in m/s (hover to see current wind gust speed)